createdAt,value
2018-12-31T00:02:11.843Z,4.13
2018-12-31T00:04:58.171Z,4.03
2018-12-31T00:07:25.267Z,4.03
2018-12-31T00:09:51.891Z,3.98
2018-12-31T00:12:38.397Z,3.87
2018-12-31T00:18:32.639Z,3.75
2018-12-31T00:21:18.990Z,3.79
2018-12-31T00:24:05.442Z,3.75
2018-12-31T00:26:32.067Z,3.73
2018-12-31T00:28:59.102Z,3.66
2018-12-31T00:31:45.505Z,3.73
2018-12-31T00:34:12.455Z,3.70
2018-12-31T00:36:59.130Z,3.59
2018-12-31T00:39:25.866Z,3.64
2018-12-31T00:41:52.503Z,3.65
2018-12-31T00:44:38.988Z,3.68
2018-12-31T00:47:25.520Z,3.68
2018-12-31T00:52:44.491Z,3.81
2018-12-31T00:55:11.274Z,3.82
2018-12-31T00:57:37.896Z,3.67
2018-12-31T01:00:04.850Z,3.73
2018-12-31T01:02:31.544Z,3.71
2018-12-31T01:04:58.175Z,3.75
2018-12-31T01:07:25.167Z,3.77
2018-12-31T01:10:11.575Z,3.70
2018-12-31T01:12:38.198Z,3.77
2018-12-31T01:15:05.153Z,3.69
2018-12-31T01:20:04.503Z,3.78
2018-12-31T01:22:50.940Z,3.77
2018-12-31T01:25:37.293Z,3.78
2018-12-31T01:28:23.774Z,3.67
2018-12-31T01:31:10.124Z,3.75
2018-12-31T01:33:56.836Z,3.81
2018-12-31T01:36:43.503Z,3.78
2018-12-31T01:39:29.920Z,3.78
2018-12-31T01:42:16.276Z,3.85
2018-12-31T01:47:35.383Z,3.73
2018-12-31T01:52:54.875Z,3.73
2018-12-31T01:56:02.965Z,3.72
2018-12-31T01:58:49.315Z,3.73
2018-12-31T02:01:35.818Z,3.78
2018-12-31T02:04:22.175Z,3.83
2018-12-31T02:06:48.868Z,3.82
2018-12-31T02:09:36.309Z,3.75
2018-12-31T02:12:04.204Z,3.74
2018-12-31T02:14:30.841Z,3.77
2018-12-31T02:17:17.260Z,3.83
2018-12-31T02:19:43.893Z,3.81
2018-12-31T02:22:30.369Z,3.82
2018-12-31T02:25:17.004Z,3.90
2018-12-31T02:27:43.792Z,3.90
2018-12-31T02:30:30.145Z,3.90
2018-12-31T02:33:38.557Z,4.00
2018-12-31T02:36:24.906Z,4.02
2018-12-31T02:39:11.602Z,3.94
2018-12-31T02:41:38.386Z,3.99
2018-12-31T02:44:05.123Z,4.01
2018-12-31T02:47:12.955Z,4.00
2018-12-31T02:49:39.585Z,4.05
2018-12-31T02:52:19.356Z,4.03
2018-12-31T02:55:05.863Z,4.14
2018-12-31T03:00:25.320Z,4.14
2018-12-31T03:05:45.230Z,4.21
2018-12-31T03:08:31.926Z,4.20
2018-12-31T03:11:18.313Z,4.28
2018-12-31T03:14:04.943Z,4.27
2018-12-31T03:16:51.274Z,4.27
2018-12-31T03:19:37.710Z,4.27
2018-12-31T03:22:24.055Z,4.37
2018-12-31T03:25:10.778Z,4.34
2018-12-31T03:27:37.529Z,4.34
2018-12-31T03:30:24.446Z,4.41
2018-12-31T03:33:10.693Z,4.50
2018-12-31T03:35:37.380Z,4.57
2018-12-31T03:38:23.744Z,4.44
2018-12-31T03:41:10.828Z,4.49
2018-12-31T03:43:57.183Z,4.47
2018-12-31T03:46:43.895Z,4.54
2018-12-31T03:49:30.258Z,4.55
2018-12-31T03:52:16.741Z,4.61
2018-12-31T03:54:43.422Z,4.53
2018-12-31T03:57:10.048Z,4.65
2018-12-31T03:59:49.841Z,4.61
2018-12-31T04:02:36.475Z,4.56
2018-12-31T04:05:44.332Z,4.60
2018-12-31T04:08:11.066Z,4.61
2018-12-31T04:10:37.698Z,4.68
2018-12-31T04:13:24.277Z,4.59
2018-12-31T04:16:10.623Z,4.71
2018-12-31T04:18:37.395Z,4.67
2018-12-31T04:21:23.751Z,4.67
2018-12-31T04:24:10.383Z,4.67
2018-12-31T04:26:37.018Z,4.74
2018-12-31T04:29:23.498Z,4.73
2018-12-31T04:31:50.815Z,4.78
2018-12-31T04:34:37.462Z,4.82
2018-12-31T04:37:04.090Z,4.76
2018-12-31T04:39:30.717Z,4.68
2018-12-31T04:42:17.116Z,4.70
2018-12-31T04:45:03.826Z,4.84
2018-12-31T04:50:23.593Z,4.83
2018-12-31T04:52:50.428Z,4.73
2018-12-31T04:55:44.408Z,4.83
2018-12-31T05:00:58.587Z,4.90
2018-12-31T05:03:25.276Z,4.83
2018-12-31T05:05:52.248Z,4.93
2018-12-31T05:08:19.219Z,4.93
2018-12-31T05:10:46.263Z,4.91
2018-12-31T05:13:13.010Z,4.96
2018-12-31T05:15:59.324Z,4.94
2018-12-31T05:18:45.685Z,4.86
2018-12-31T05:21:12.640Z,4.98
2018-12-31T05:23:39.280Z,5.00
2018-12-31T05:26:06.012Z,4.96
2018-12-31T05:28:52.439Z,4.95
2018-12-31T05:31:39.058Z,4.97
2018-12-31T05:34:25.540Z,5.02
2018-12-31T05:37:12.171Z,4.98
2018-12-31T05:42:11.774Z,5.04
2018-12-31T05:44:38.415Z,5.10
2018-12-31T05:47:24.831Z,5.08
2018-12-31T05:49:51.752Z,5.08
2018-12-31T05:52:18.385Z,5.11
2018-12-31T05:57:37.589Z,4.98
2018-12-31T06:02:59.134Z,5.13
2018-12-31T06:05:26.058Z,5.05
2018-12-31T06:08:12.758Z,5.00
2018-12-31T06:10:59.589Z,5.02
2018-12-31T06:13:46.346Z,5.06
2018-12-31T06:16:32.700Z,4.99
2018-12-31T06:18:59.504Z,5.03
2018-12-31T06:21:46.133Z,5.09
2018-12-31T06:24:32.891Z,5.07
2018-12-31T06:26:59.545Z,5.16
2018-12-31T06:29:26.183Z,5.11
2018-12-31T06:32:12.839Z,5.16
2018-12-31T06:34:39.603Z,5.17
2018-12-31T06:37:06.239Z,5.17
2018-12-31T06:39:52.695Z,5.09
2018-12-31T06:42:19.331Z,5.20
2018-12-31T06:45:05.749Z,5.18
2018-12-31T06:47:52.102Z,5.21
2018-12-31T06:50:18.791Z,5.22
2018-12-31T06:53:05.037Z,5.18
2018-12-31T06:56:12.869Z,5.19
2018-12-31T06:58:59.226Z,5.24
2018-12-31T07:04:18.581Z,5.31
2018-12-31T07:06:45.381Z,5.28
2018-12-31T07:09:12.176Z,5.32
2018-12-31T07:11:39.507Z,5.35
2018-12-31T07:16:38.994Z,5.30
2018-12-31T07:19:25.480Z,5.34
2018-12-31T07:22:12.107Z,5.34
2018-12-31T07:24:58.534Z,5.45
2018-12-31T07:27:44.784Z,5.48
2018-12-31T07:32:45.800Z,5.42
2018-12-31T07:35:32.200Z,5.51
2018-12-31T07:37:59.209Z,5.56
2018-12-31T07:40:45.691Z,5.52
2018-12-31T07:43:12.323Z,5.48
2018-12-31T07:45:38.975Z,5.43
2018-12-31T07:48:25.386Z,5.52
2018-12-31T07:50:52.144Z,5.50
2018-12-31T07:53:19.107Z,5.54
2018-12-31T07:58:38.227Z,5.62
2018-12-31T08:01:05.375Z,5.60
2018-12-31T08:03:51.879Z,5.71
2018-12-31T08:06:31.698Z,5.63
2018-12-31T08:08:58.330Z,5.65
2018-12-31T08:11:44.942Z,5.76
2018-12-31T08:14:12.383Z,5.76
2018-12-31T08:16:58.788Z,5.72
2018-12-31T08:19:25.425Z,5.81
2018-12-31T08:21:52.156Z,5.86
2018-12-31T08:24:38.630Z,5.89
2018-12-31T08:27:25.307Z,5.93
2018-12-31T08:30:11.698Z,5.97
2018-12-31T08:32:38.447Z,6.05
2018-12-31T08:35:05.513Z,6.10
2018-12-31T08:37:52.125Z,6.00
2018-12-31T08:40:38.527Z,6.18
2018-12-31T08:43:25.035Z,6.15
2018-12-31T08:46:11.398Z,6.23
2018-12-31T08:48:38.187Z,6.22
2018-12-31T08:51:24.818Z,6.22
2018-12-31T08:54:11.589Z,6.18
2018-12-31T08:56:57.947Z,6.18
2018-12-31T08:59:44.395Z,6.34
2018-12-31T09:02:30.750Z,6.33
2018-12-31T09:05:17.168Z,6.35
2018-12-31T09:07:56.565Z,6.43
2018-12-31T09:11:05.025Z,6.50
2018-12-31T09:13:51.399Z,6.43
2018-12-31T09:16:37.879Z,6.54
2018-12-31T09:19:04.752Z,6.72
2018-12-31T09:21:31.783Z,6.88
2018-12-31T09:23:58.600Z,6.77
2018-12-31T09:26:25.335Z,6.86
2018-12-31T09:29:11.928Z,6.93
2018-12-31T09:31:58.361Z,6.96
2018-12-31T09:37:17.435Z,6.83
2018-12-31T09:40:04.055Z,6.83
2018-12-31T09:42:50.689Z,6.76
2018-12-31T09:45:17.394Z,6.75
2018-12-31T09:47:44.448Z,6.86
2018-12-31T09:50:11.181Z,6.93
2018-12-31T09:52:57.622Z,6.95
2018-12-31T09:55:24.390Z,6.95
2018-12-31T09:57:51.023Z,6.94
2018-12-31T10:00:59.169Z,7.06
2018-12-31T10:03:26.228Z,7.12
2018-12-31T10:06:12.915Z,7.14
2018-12-31T10:08:52.056Z,7.20
2018-12-31T10:14:11.226Z,7.06
2018-12-31T10:19:10.615Z,7.15
2018-12-31T10:21:57.037Z,7.22
2018-12-31T10:24:43.666Z,7.23
2018-12-31T10:30:03.171Z,7.33
2018-12-31T10:32:30.628Z,7.39
2018-12-31T10:34:57.640Z,7.49
2018-12-31T10:37:44.046Z,7.56
2018-12-31T10:40:30.428Z,7.57
2018-12-31T10:43:17.211Z,7.54
2018-12-31T10:46:03.591Z,7.45
2018-12-31T10:51:22.943Z,7.87
2018-12-31T10:56:42.001Z,8.15
2018-12-31T10:59:28.532Z,8.00
2018-12-31T11:01:55.276Z,8.11
2018-12-31T11:04:22.299Z,7.96
2018-12-31T11:06:49.226Z,7.97
2018-12-31T11:09:29.053Z,8.00
2018-12-31T11:12:15.474Z,7.88
2018-12-31T11:15:01.842Z,7.84
2018-12-31T11:17:48.227Z,7.84
2018-12-31T11:20:34.861Z,7.80
2018-12-31T11:23:21.358Z,7.59
2018-12-31T11:26:07.713Z,7.80
2018-12-31T11:28:54.168Z,7.79
2018-12-31T11:31:40.804Z,7.97
2018-12-31T11:34:07.898Z,7.91
2018-12-31T11:36:54.267Z,7.90
2018-12-31T11:39:40.691Z,7.93
2018-12-31T11:42:27.056Z,7.99
2018-12-31T11:44:53.874Z,8.18
2018-12-31T11:47:41.076Z,8.15
2018-12-31T11:50:27.576Z,8.15
2018-12-31T11:53:14.211Z,8.04
2018-12-31T11:56:00.930Z,8.00
2018-12-31T11:58:47.415Z,8.10
2018-12-31T12:01:34.528Z,7.97
2018-12-31T12:04:20.906Z,8.02
2018-12-31T12:07:07.387Z,8.12
2018-12-31T12:09:53.759Z,8.03
2018-12-31T12:12:33.626Z,8.10
2018-12-31T12:15:20.084Z,7.96
2018-12-31T12:18:06.858Z,8.03
2018-12-31T12:20:53.390Z,8.00
2018-12-31T12:24:01.478Z,8.06
2018-12-31T12:26:48.040Z,8.10
2018-12-31T12:29:35.111Z,8.31
2018-12-31T12:32:21.643Z,8.23
2018-12-31T12:35:08.084Z,8.12
2018-12-31T12:37:34.838Z,8.09
2018-12-31T12:40:21.241Z,8.17
2018-12-31T12:43:08.013Z,8.22
2018-12-31T12:45:54.345Z,8.30
2018-12-31T12:48:40.695Z,8.25
2018-12-31T12:51:27.196Z,8.28
2018-12-31T12:54:13.577Z,8.36
2018-12-31T12:57:00.028Z,8.23
2018-12-31T12:59:46.389Z,8.27
2018-12-31T13:02:32.807Z,8.29
2018-12-31T13:05:03.608Z,8.26
2018-12-31T13:07:28.402Z,8.38
2018-12-31T13:10:14.881Z,8.40
2018-12-31T13:13:01.841Z,8.29
2018-12-31T13:15:30.939Z,8.37
2018-12-31T13:18:17.613Z,8.32
2018-12-31T13:21:04.175Z,8.45
2018-12-31T13:23:50.536Z,8.46
2018-12-31T13:26:43.624Z,8.61
2018-12-31T13:29:05.954Z,8.56
2018-12-31T13:31:32.813Z,8.42
2018-12-31T13:33:59.612Z,8.46
2018-12-31T13:36:26.487Z,8.41
2018-12-31T13:38:53.343Z,8.46
2018-12-31T13:41:20.502Z,8.56
2018-12-31T13:44:08.682Z,8.56
2018-12-31T13:46:35.547Z,8.56
2018-12-31T13:49:02.267Z,8.53
2018-12-31T13:51:28.998Z,8.57
2018-12-31T13:53:56.149Z,8.52
2018-12-31T13:56:23.201Z,8.57
2018-12-31T13:58:49.944Z,8.47
2018-12-31T14:01:16.979Z,8.42
2018-12-31T14:03:43.712Z,8.41
2018-12-31T14:06:10.772Z,8.36
2018-12-31T14:08:37.599Z,8.29
2018-12-31T14:11:04.770Z,8.19
2018-12-31T14:13:31.904Z,8.11
2018-12-31T14:16:12.008Z,8.19
2018-12-31T14:18:39.228Z,8.16
2018-12-31T14:21:05.866Z,8.10
2018-12-31T14:23:32.724Z,8.17
2018-12-31T14:25:59.450Z,8.14
2018-12-31T14:28:26.183Z,7.99
2018-12-31T14:30:53.152Z,8.08
2018-12-31T14:33:41.304Z,8.06
2018-12-31T14:36:08.197Z,7.94
2018-12-31T14:38:35.259Z,7.96
2018-12-31T14:41:02.300Z,7.93
2018-12-31T14:43:50.625Z,7.85
2018-12-31T14:46:17.780Z,7.85
2018-12-31T14:48:44.520Z,7.90
2018-12-31T14:51:31.060Z,7.94
2018-12-31T14:54:17.425Z,7.85
2018-12-31T14:59:17.283Z,7.83
2018-12-31T15:02:03.773Z,7.78
2018-12-31T15:04:50.262Z,7.78
2018-12-31T15:07:17.087Z,7.80
2018-12-31T15:10:03.443Z,7.73
2018-12-31T15:12:49.859Z,7.66
2018-12-31T15:15:36.236Z,7.59
2018-12-31T15:21:31.298Z,7.46
2018-12-31T15:24:17.790Z,7.53
2018-12-31T15:27:04.459Z,7.42
2018-12-31T15:29:50.816Z,7.48
2018-12-31T15:32:37.311Z,7.42
2018-12-31T15:35:45.602Z,7.39
2018-12-31T15:38:32.290Z,7.39
2018-12-31T15:41:18.653Z,7.40
2018-12-31T15:44:05.348Z,7.43
2018-12-31T15:46:51.708Z,7.42
2018-12-31T15:49:38.211Z,7.37
2018-12-31T15:52:24.873Z,7.38
2018-12-31T15:54:51.988Z,7.29
2018-12-31T15:57:38.635Z,7.29
2018-12-31T16:00:07.561Z,7.29
2018-12-31T16:02:36.339Z,7.29
2018-12-31T16:05:22.841Z,7.22
2018-12-31T16:08:09.200Z,7.26
2018-12-31T16:10:56.346Z,7.22
2018-12-31T16:13:42.919Z,7.26
2018-12-31T16:16:36.539Z,7.23
2018-12-31T16:19:22.960Z,7.19
2018-12-31T16:22:09.675Z,7.21
2018-12-31T16:24:36.789Z,7.33
2018-12-31T16:27:03.899Z,7.36
2018-12-31T16:32:23.683Z,7.22
2018-12-31T16:35:10.187Z,7.24
2018-12-31T16:37:56.822Z,7.27
2018-12-31T16:40:24.003Z,7.39
2018-12-31T16:42:51.089Z,7.32
2018-12-31T16:46:18.164Z,7.39
2018-12-31T16:48:47.784Z,7.38
2018-12-31T16:56:48.420Z,7.35
2018-12-31T16:59:15.292Z,7.34
2018-12-31T17:02:02.045Z,7.36
2018-12-31T17:04:48.406Z,7.26
2018-12-31T17:07:34.895Z,7.26
2018-12-31T17:10:21.361Z,7.24
2018-12-31T17:13:07.798Z,7.20
2018-12-31T17:19:00.159Z,7.33
2018-12-31T17:21:27.048Z,7.20
2018-12-31T17:23:54.127Z,7.25
2018-12-31T17:26:21.149Z,7.30
2018-12-31T17:28:47.985Z,7.25
2018-12-31T17:31:14.892Z,7.23
2018-12-31T17:33:42.447Z,7.30
2018-12-31T17:36:09.203Z,7.28
2018-12-31T17:38:36.248Z,7.29
2018-12-31T17:41:03.400Z,7.30
2018-12-31T17:43:30.425Z,7.37
2018-12-31T17:45:57.621Z,7.26
2018-12-31T17:48:44.329Z,7.26
2018-12-31T17:51:30.704Z,7.22
2018-12-31T17:53:57.924Z,7.27
2018-12-31T17:56:26.300Z,7.25
2018-12-31T17:58:53.213Z,7.21
2018-12-31T18:01:20.400Z,7.22
2018-12-31T18:04:16.283Z,7.26
2018-12-31T18:09:43.888Z,7.14
2018-12-31T18:19:17.349Z,7.20
2018-12-31T18:27:58.684Z,7.16
2018-12-31T18:30:42.668Z,7.24
2018-12-31T18:33:56.971Z,7.26
2018-12-31T18:36:47.430Z,7.27
2018-12-31T18:39:14.437Z,7.23
2018-12-31T18:51:10.516Z,7.27
2018-12-31T18:54:43.653Z,7.26
2018-12-31T18:57:32.263Z,7.20
2018-12-31T19:02:10.245Z,7.31
2018-12-31T19:03:18.221Z,7.33
2018-12-31T19:18:35.147Z,7.35
2018-12-31T19:21:23.501Z,7.44
2018-12-31T19:24:12.763Z,7.45
2018-12-31T19:26:39.506Z,7.42
2018-12-31T19:29:10.808Z,7.44
2018-12-31T19:37:22.734Z,7.47
2018-12-31T19:39:49.468Z,7.46
2018-12-31T19:42:16.232Z,7.52
2018-12-31T19:44:43.307Z,7.56
2018-12-31T19:47:10.247Z,7.47
2018-12-31T19:49:37.106Z,7.53
2018-12-31T19:52:45.092Z,7.54
2018-12-31T19:55:11.968Z,7.58
2018-12-31T19:57:38.713Z,7.58
2018-12-31T20:00:06.475Z,7.60
2018-12-31T20:02:33.207Z,7.52
2018-12-31T20:05:00.292Z,7.60
2018-12-31T20:10:00.263Z,7.65
2018-12-31T20:12:28.860Z,7.60
2018-12-31T20:14:55.656Z,7.61
2018-12-31T20:17:22.409Z,7.62
2018-12-31T20:19:49.850Z,7.61
2018-12-31T20:22:16.590Z,7.67
2018-12-31T20:24:43.331Z,7.68
2018-12-31T20:27:10.489Z,7.70
2018-12-31T20:29:50.509Z,7.74
2018-12-31T20:32:17.488Z,7.74
2018-12-31T20:34:44.239Z,7.79
2018-12-31T20:37:10.972Z,7.75
2018-12-31T20:39:37.771Z,7.79
2018-12-31T20:42:04.811Z,7.84
2018-12-31T20:44:31.686Z,7.81
2018-12-31T20:46:58.504Z,7.86
2018-12-31T20:49:25.245Z,7.87
2018-12-31T20:51:51.977Z,7.82
2018-12-31T20:54:19.391Z,7.95
2018-12-31T20:56:46.130Z,7.90
2018-12-31T20:59:12.861Z,7.91
2018-12-31T21:01:39.823Z,7.98
2018-12-31T21:04:06.696Z,8.03
2018-12-31T21:18:26.316Z,8.34
2018-12-31T21:20:57.061Z,8.29
2018-12-31T21:23:35.626Z,8.26
2018-12-31T21:25:55.318Z,8.33
2018-12-31T21:28:22.293Z,8.35
2018-12-31T21:30:49.982Z,8.28
2018-12-31T21:33:18.061Z,8.37
2018-12-31T21:35:47.555Z,8.32
2018-12-31T21:38:14.286Z,8.32
2018-12-31T21:40:41.086Z,8.34
2018-12-31T21:43:07.914Z,8.35
2018-12-31T21:48:25.536Z,8.40
2018-12-31T21:50:52.556Z,8.37
2018-12-31T21:53:19.875Z,8.41
2018-12-31T21:55:48.990Z,8.42
2018-12-31T21:58:15.774Z,8.42
2018-12-31T22:00:46.300Z,8.40
2018-12-31T22:13:20.013Z,8.50
2018-12-31T22:25:27.700Z,8.52
2018-12-31T22:27:38.734Z,8.52
2018-12-31T22:30:07.161Z,8.57
2018-12-31T22:32:47.364Z,8.61
2018-12-31T22:35:14.115Z,8.60
2018-12-31T22:38:00.609Z,8.61
2018-12-31T22:40:27.598Z,8.61
2018-12-31T22:42:55.387Z,8.61
2018-12-31T22:45:22.317Z,8.60
2018-12-31T22:47:49.115Z,8.62
2018-12-31T22:50:16.044Z,8.65
2018-12-31T22:52:42.912Z,8.64
2018-12-31T22:55:09.816Z,8.60
2018-12-31T22:58:18.576Z,8.64
2018-12-31T23:00:46.126Z,8.68
2018-12-31T23:03:37.194Z,8.68
2018-12-31T23:06:05.157Z,8.73
2018-12-31T23:08:37.545Z,8.69
2018-12-31T23:11:04.956Z,8.70
2018-12-31T23:13:35.329Z,8.70
2018-12-31T23:16:23.507Z,8.70
2018-12-31T23:18:53.169Z,8.70
2018-12-31T23:21:20.022Z,8.69
2018-12-31T23:23:58.777Z,8.72
2018-12-31T23:33:24.812Z,8.76
2018-12-31T23:53:46.190Z,8.84
2018-12-31T23:56:14.484Z,8.81
2018-12-31T23:58:44.935Z,8.87
